EW9318 Weather Reports


Display with metric or nautical units.
time (UTC)temp
F
wind
direction
speed
MPH
gust
MPH
rain 1hr
in
rain 24hr
in
rain mn
in
humidity
%
barometer
mb
20210121203023 38 263 16.0 32.0 0.00 0.21 0.21 64 1001.4
20210121202519 38 270 19.0 37.0 0.00 0.21 0.21 63 1001.4
20210121202020 38 266 23.0 37.0 0.00 0.21 0.21 63 1001.4
20210121201526 38 269 19.0 32.0 0.01 0.21 0.21 62 1001.3
20210121201022 38 260 19.0 33.0 0.01 0.21 0.21 62 1001.2
20210121200518 38 270 19.0 34.0 0.01 0.21 0.21 62 1001.3
20210121200025 38 266 21.0 34.0 0.01 0.21 0.21 61 1001.2
20210121195522 38 271 18.0 32.0 0.01 0.21 0.21 60 1001.1
20210121195021 38 261 17.0 26.0 0.01 0.21 0.21 61 1001.1
20210121194527 38 257 15.0 27.0 0.01 0.21 0.21 61 1001.1
20210121194022 38 265 17.0 27.0 0.01 0.21 0.21 60 1001.0
20210121193522 39 271 13.0 27.0 0.02 0.21 0.21 60 1000.9
20210121193026 38 263 16.0 33.0 0.02 0.21 0.21 59 1000.9
20210121192521 38 252 19.0 33.0 0.02 0.21 0.21 61 1000.9
20210121192025 38 265 12.0 27.0 0.02 0.21 0.21 62 1000.9
20210121191521 38 266 17.0 27.0 0.02 0.20 0.20 61 1000.8
20210121191022 38 262 14.0 26.0 0.02 0.20 0.20 61 1000.9
20210121190523 38 268 15.0 26.0 0.03 0.20 0.20 61 1000.9
20210121190025 38 265 18.0 29.0 0.04 0.20 0.20 62 1001.1
20210121185515 38 268 16.0 29.0 0.04 0.20 0.20 63 1001.0
20210121185023 38 260 14.0 26.0 0.05 0.20 0.20 63 1001.0
20210121184523 38 266 12.0 22.0 0.05 0.20 0.20 64 1001.2
20210121184021 38 260 13.0 26.0 0.05 0.20 0.20 64 1001.2
20210121183526 38 270 16.0 28.0 0.05 0.19 0.19 65 1001.2
20210121183035 38 266 16.0 28.0 0.05 0.19 0.19 65 1001.3
20210121182521 38 262 15.0 32.0 0.05 0.19 0.19 66 1001.5
20210121182016 38 270 17.0 32.0 0.06 0.19 0.19 65 1001.4
20210121181522 38 267 12.0 27.0 0.05 0.18 0.18 66 1001.4
20210121181020 37 262 17.0 31.0 0.06 0.18 0.18 67 1001.5
20210121180517 38 259 19.0 31.0 0.05 0.17 0.17 66 1001.6
20210121180022 38 247 16.0 29.0 0.05 0.16 0.16 67 1001.6
20210121175519 38 258 13.0 25.0 0.05 0.16 0.16 65 1001.6
20210121175023 38 267 14.0 27.0 0.04 0.15 0.15 63 1001.8
20210121174527 38 268 15.0 27.0 0.05 0.15 0.15 62 1001.8
20210121174025 38 260 12.0 26.0 0.05 0.15 0.15 64 1001.8
20210121173520 38 261 16.0 28.0 0.05 0.13 0.14 64 1001.8
20210121173032 38 263 17.0 28.0 0.05 0.13 0.14 64 1001.9
20210121172520 38 264 15.0 28.0 0.06 0.13 0.14 65 1001.8
20210121172026 38 262 15.0 28.0 0.05 0.12 0.13 64 1001.9
20210121171524 37 261 18.0 28.0 0.06 0.12 0.13 65 1002.1
20210121171021 38 263 17.0 24.0 0.05 0.11 0.12 65 1002.1
20210121170517 38 270 12.0 27.0 0.06 0.11 0.12 65 1002.2
20210121170025 37 258 17.0 28.0 0.05 0.10 0.11 65 1002.3
20210121165522 37 270 16.0 28.0 0.06 0.10 0.11 65 1002.3
20210121165022 37 262 15.0 29.0 0.06 0.10 0.11 66 1002.5
20210121164520 37 265 18.0 29.0 0.06 0.10 0.10 66 1002.4
20210121164021 37 258 16.0 31.0 0.06 0.10 0.10 66 1002.4
20210121163525 37 266 18.0 33.0 0.06 0.09 0.09 67 1002.5
20210121163024 37 257 20.0 33.0 0.06 0.09 0.09 67 1002.5
20210121162517 37 262 17.0 29.0 0.05 0.08 0.08 67 1002.6
20210121162021 37 258 20.0 29.0 0.06 0.08 0.08 67 1002.5
20210121161522 37 269 18.0 30.0 0.05 0.07 0.07 68 1002.6
20210121161020 37 259 20.0 30.0 0.05 0.07 0.07 68 1002.5
20210121160521 37 265 17.0 30.0 0.05 0.06 0.06 68 1002.6
20210121160022 37 260 14.0 25.0 0.05 0.06 0.06 69 1002.6
20210121155521 37 268 15.0 25.0 0.04 0.05 0.05 69 1002.6
20210121155015 37 275 13.0 24.0 0.04 0.05 0.05 69 1002.7
20210121154524 37 274 15.0 27.0 0.03 0.04 0.04 68 1002.7
20210121154020 37 277 16.0 30.0 0.03 0.04 0.04 68 1002.6
20210121153520 37 275 19.0 30.0 0.02 0.03 0.03 68 1002.5
20210121153026 37 272 17.0 27.0 0.02 0.03 0.03 69 1002.6
20210121152518 37 272 17.0 29.0 0.03 0.03 0.03 70 1002.5
20210121152020 37 260 18.0 29.0 0.02 0.02 0.02 70 1002.5
20210121151524 37 262 15.0 29.0 0.02 0.02 0.02 71 1002.5
20210121151018 37 269 13.0 23.0 0.02 0.02 0.02 71 1002.5
20210121150519 36 275 14.0 25.0 0.01 0.01 0.01 71 1002.5
20210121150031 36 272 13.0 25.0 0.01 0.01 0.01 71 1002.4
20210121145522 36 266 13.0 22.0 0.01 0.01 0.01 72 1002.4
20210121145023 35 272 11.0 18.0 0.01 0.01 0.01 74 1002.3
20210121144526 35 266 11.0 18.0 0.01 0.01 0.01 76 1002.3
20210121144032 35 260 11.0 16.0 0.01 0.01 0.01 77 1002.4
20210121143520 34 257 9.0 15.0 0.01 0.01 0.01 79 1002.3
20210121143028 33 253 7.0 11.0 0.01 0.01 0.01 79 1002.4
20210121142528 33 253 8.0 12.0 0.00 0.00 0.00 80 1002.4
20210121142020 33 250 7.0 13.0 0.00 0.00 0.00 80 1002.5
20210121141529 33 244 8.0 13.0 0.00 0.00 0.00 81 1002.3
20210121141022 33 245 8.0 13.0 0.00 0.00 0.00 81 1002.4
20210121140518 32 243 7.0 11.0 0.00 0.00 0.00 81 1002.3
20210121140030 32 250 7.0 11.0 0.00 0.00 0.00 82 1002.4
20210121135531 32 251 7.0 10.0 0.00 0.00 0.00 82 1002.4
20210121135025 32 249 6.0 11.0 0.00 0.00 0.00 82 1002.4
20210121134517 32 246 7.0 12.0 0.00 0.00 0.00 82 1002.4
20210121134020 32 246 8.0 12.0 0.00 0.00 0.00 82 1002.5
20210121133523 32 248 7.0 13.0 0.00 0.00 0.00 82 1002.5
20210121133021 32 246 8.0 13.0 0.00 0.00 0.00 82 1002.5
20210121132521 32 247 7.0 11.0 0.00 0.00 0.00 82 1002.6
20210121132030 32 248 7.0 10.0 0.00 0.00 0.00 82 1002.5
20210121131521 32 248 7.0 11.0 0.00 0.00 0.00 82 1002.6
20210121131021 32 248 7.0 11.0 0.00 0.00 0.00 82 1002.7
20210121130525 32 247 7.0 13.0 0.00 0.00 0.00 82 1002.7
20210121130024 32 249 8.0 13.0 0.00 0.00 0.00 82 1002.7
20210121125521 32 250 8.0 13.0 0.00 0.00 0.00 83 1002.7
20210121125019 32 250 8.0 12.0 0.00 0.00 0.00 83 1002.7
20210121124524 32 251 8.0 11.0 0.00 0.00 0.00 83 1002.7
20210121124030 31 255 7.0 11.0 0.00 0.00 0.00 84 1002.7
20210121123525 31 254 6.0 10.0 0.00 0.00 0.00 84 1002.7
20210121123023 31 255 6.0 10.0 0.00 0.00 0.00 83 1002.7
20210121122524 31 250 7.0 10.0 0.00 0.00 0.00 83 1002.8
20210121122032 31 253 6.0 9.0 0.00 0.00 0.00 82 1002.8
20210121121523 32 250 5.0 9.0 0.00 0.00 0.00 82 1002.8
20210121121047 32 244 5.0 9.0 0.00 0.00 0.00 82 1002.8
20210121120655 32 245 5.0 9.0 0.00 0.00 0.00 81 1002.8
20210121120027 32 245 5.0 9.0 0.00 0.00 0.00 81 1002.9
20210121115530 32 241 5.0 9.0 0.00 0.00 0.00 80 1003.0
20210121115042 33 247 5.0 9.0 0.00 0.00 0.00 80 1003.0
20210121114525 33 253 5.0 10.0 0.00 0.00 0.00 80 1003.0
20210121114022 33 244 6.0 11.0 0.00 0.00 0.00 80 1002.8
20210121113522 33 251 7.0 11.0 0.00 0.00 0.00 80 1002.8
20210121113023 33 259 6.0 12.0 0.00 0.00 0.00 80 1002.9
20210121112522 33 265 7.0 12.0 0.00 0.00 0.00 80 1002.9
20210121112038 33 261 7.0 12.0 0.00 0.00 0.00 81 1002.9
20210121111529 33 260 8.0 12.0 0.00 0.00 0.00 81 1002.8
20210121111036 33 261 6.0 12.0 0.00 0.00 0.00 81 1002.9
20210121110530 33 263 8.0 14.0 0.00 0.00 0.00 82 1002.9
20210121110032 33 261 8.0 14.0 0.00 0.00 0.00 82 1003.0
20210121105542 33 260 7.0 13.0 0.00 0.00 0.00 82 1003.0
20210121105027 33 260 8.0 13.0 0.00 0.00 0.00 82 1003.0
20210121104525 33 263 8.0 12.0 0.00 0.00 0.00 82 1003.1
20210121104021 33 265 7.0 13.0 0.00 0.00 0.00 82 1003.1
20210121103518 33 262 7.0 13.0 0.00 0.00 0.00 82 1003.1
20210121103019 33 262 8.0 13.0 0.00 0.00 0.00 82 1003.0
20210121102524 33 261 7.0 13.0 0.00 0.00 0.00 82 1003.0
20210121102022 33 256 7.0 12.0 0.00 0.00 0.00 82 1002.9
20210121101522 33 256 7.0 12.0 0.00 0.00 0.00 82 1002.9
20210121101025 33 260 7.0 14.0 0.00 0.00 0.00 82 1002.8
20210121100518 33 262 9.0 14.0 0.00 0.00 0.00 82 1002.8
20210121100033 33 256 8.0 16.0 0.00 0.00 0.00 82 1002.8
20210121095519 33 253 9.0 16.0 0.00 0.00 0.00 83 1002.6
20210121095023 33 253 8.0 15.0 0.00 0.00 0.00 83 1002.6
20210121094533 33 251 9.0 15.0 0.00 0.00 0.00 83 1002.6
20210121094019 33 253 9.0 14.0 0.00 0.00 0.00 83 1002.6
20210121093520 33 250 8.0 15.0 0.00 0.00 0.00 83 1002.6
20210121093033 33 256 9.0 15.0 0.00 0.00 0.00 83 1002.6
20210121092516 33 252 8.0 16.0 0.00 0.00 0.00 83 1002.5
20210121092021 33 256 9.0 17.0 0.00 0.00 0.00 83 1002.6
20210121091521 33 248 10.0 17.0 0.00 0.00 0.00 84 1002.5
20210121091018 33 250 9.0 15.0 0.00 0.00 0.00 83 1002.5
20210121090526 34 246 10.0 17.0 0.00 0.00 0.00 83 1002.5
20210121090025 34 257 10.0 17.0 0.00 0.00 0.00 83 1002.6
20210121085523 34 249 11.0 17.0 0.00 0.00 0.00 83 1002.6
20210121085023 34 247 11.0 19.0 0.00 0.00 0.00 82 1002.6
20210121084536 34 253 12.0 19.0 0.00 0.00 0.00 82 1002.7
20210121084029 34 251 11.0 17.0 0.00 0.00 0.00 82 1002.7
20210121083519 34 250 11.0 19.0 0.00 0.00 0.00 82 1002.7
20210121083039 34 254 12.0 19.0 0.00 0.00 0.00 82 1002.7
20210121082523 34 251 10.0 20.0 0.00 0.00 0.00 81 1002.7
20210121082034 34 255 10.0 20.0 0.00 0.00 0.00 81 1002.9
20210121081526 34 251 10.0 16.0 0.00 0.00 0.00 81 1002.9
20210121081021 34 255 11.0 21.0 0.00 0.00 0.00 81 1002.9
20210121080519 34 253 11.0 21.0 0.00 0.00 0.00 81 1002.8
20210121080032 34 248 10.0 20.0 0.00 0.00 0.00 81 1002.8
20210121075526 34 243 12.0 20.0 0.00 0.00 0.00 81 1002.7
20210121075028 34 269 11.0 18.0 0.00 0.00 0.00 81 1002.9
20210121074524 34 257 10.0 18.0 0.00 0.00 0.00 81 1002.9
20210121074026 34 257 11.0 18.0 0.00 0.00 0.00 81 1002.8
20210121073527 34 255 11.0 16.0 0.00 0.00 0.00 81 1002.8
20210121073040 33 254 10.0 19.0 0.00 0.00 0.00 81 1002.7
20210121072523 34 256 12.0 22.0 0.00 0.00 0.00 81 1002.7
20210121072023 34 250 13.0 25.0 0.00 0.00 0.00 81 1002.5
20210121071524 34 249 14.0 25.0 0.00 0.00 0.00 81 1002.6
20210121071022 33 249 13.0 23.0 0.00 0.00 0.00 81 1002.5
20210121070522 34 255 13.0 26.0 0.00 0.00 0.00 81 1002.7
20210121070039 33 255 15.0 26.0 0.00 0.00 0.00 81 1002.5
20210121065529 33 249 14.0 23.0 0.00 0.00 0.00 81 1002.5
20210121065023 33 248 15.0 22.0 0.00 0.00 0.00 80 1002.5
20210121064522 33 249 13.0 27.0 0.00 0.00 0.00 80 1002.7
20210121064023 33 252 15.0 27.0 0.00 0.00 0.00 80 1002.6
20210121063526 33 248 15.0 23.0 0.00 0.00 0.00 80 1002.7
20210121063026 33 255 13.0 27.0 0.00 0.00 0.00 80 1002.8
20210121062546 32 247 15.0 27.0 0.00 0.00 0.00 81 1002.8
20210121062037 32 253 12.0 18.0 0.00 0.00 0.00 80 1002.8
20210121061526 31 247 11.0 16.0 0.00 0.00 0.00 80 1002.8
20210121061020 30 245 9.0 16.0 0.00 0.00 0.00 80 1002.9
20210121060520 30 246 9.0 16.0 0.00 0.00 0.00 79 1002.7
20210121060026 29 227 7.0 14.0 0.00 0.00 0.00 77 1002.7
20210121055539 29 243 7.0 15.0 0.00 0.00 0.00 77 1002.8
20210121055032 29 228 7.0 15.0 0.00 0.00 0.00 77 1002.8
20210121054541 29 220 7.0 13.0 0.00 0.00 0.00 76 1002.7
20210121054038 29 219 7.0 14.0 0.00 0.00 0.00 76 1002.9
20210121053525 29 219 7.0 14.0 0.00 0.00 0.00 75 1003.0
20210121053029 29 220 7.0 13.0 0.00 0.00 0.00 75 1003.3
20210121052518 29 219 7.0 19.0 0.00 0.00 0.00 75 1003.4
20210121052027 29 221 8.0 19.0 0.00 0.00 0.00 75 1003.6
20210121051526 29 224 9.0 18.0 0.00 0.00 0.00 74 1003.6
20210121051019 29 223 10.0 18.0 0.00 0.00 0.00 74 1003.7
20210121050517 29 233 9.0 19.0 0.00 0.00 0.00 74 1004.0
20210121050026 29 231 10.0 19.0 0.00 0.00 0.00 74 1003.9
20210121045517 28 236 10.0 18.0 0.00 0.00 0.00 74 1004.2
20210121045025 28 231 9.0 18.0 0.00 0.00 0.00 74 1004.2
20210121044521 28 218 9.0 21.0 0.00 0.00 0.00 74 1004.3
20210121044020 28 228 10.0 21.0 0.00 0.00 0.00 74 1004.3
20210121043520 28 229 9.0 20.0 0.00 0.00 0.00 74 1004.3
20210121043027 28 235 9.0 18.0 0.00 0.00 0.00 74 1004.5
20210121042528 27 233 10.0 18.0 0.00 0.00 0.00 74 1004.5
20210121042021 27 225 9.0 16.0 0.00 0.00 0.00 73 1004.5
20210121041527 27 234 9.0 16.0 0.00 0.00 0.00 73 1004.7
20210121041026 27 237 8.0 17.0 0.00 0.00 0.00 73 1004.8
20210121040521 27 241 10.0 17.0 0.00 0.00 0.00 73 1004.8
20210121040024 27 230 9.0 18.0 0.00 0.00 0.00 73 1004.7
20210121035516 27 230 9.0 18.0 0.00 0.00 0.00 73 1004.8
20210121035027 27 223 8.0 17.0 0.00 0.00 0.00 73 1004.9
20210121034523 27 221 10.0 21.0 0.00 0.00 0.00 73 1004.9
20210121034021 26 219 11.0 21.0 0.00 0.00 0.00 73 1005.0
20210121033521 26 222 9.0 18.0 0.00 0.00 0.00 73 1005.2
20210121033031 26 228 10.0 18.0 0.00 0.00 0.00 73 1005.3
20210121032519 26 215 8.0 15.0 0.00 0.00 0.00 73 1005.4
20210121032024 26 220 8.0 15.0 0.00 0.00 0.00 73 1005.5
20210121031530 25 225 8.0 16.0 0.00 0.00 0.00 73 1005.7
20210121031019 25 213 7.0 16.0 0.00 0.00 0.00 74 1005.8
20210121030519 25 218 8.0 22.0 0.00 0.00 0.00 74 1005.9
20210121030033 25 211 7.0 22.0 0.00 0.00 0.00 74 1005.8
20210121025521 24 211 6.0 17.0 0.00 0.00 0.00 74 1006.0
20210121025022 24 212 7.0 17.0 0.00 0.00 0.00 74 1006.3
20210121024518 24 211 6.0 13.0 0.00 0.00 0.00 73 1006.3
20210121024021 24 206 6.0 13.0 0.00 0.00 0.00 73 1006.5
20210121023522 24 213 7.0 17.0 0.00 0.00 0.00 74 1006.6
20210121023034 24 218 8.0 17.0 0.00 0.00 0.00 74 1006.7
20210121022526 24 217 9.0 16.0 0.00 0.00 0.00 74 1006.7
20210121022022 24 217 6.0 16.0 0.00 0.00 0.00 74 1006.9
20210121021521 24 224 7.0 16.0 0.00 0.00 0.00 74 1007.0
20210121021021 24 221 7.0 21.0 0.00 0.00 0.00 74 1006.9
20210121020519 23 217 8.0 21.0 0.00 0.00 0.00 74 1006.9
20210121020030 23 200 7.0 15.0 0.00 0.00 0.00 74 1006.9
20210121015516 23 210 6.0 19.0 0.00 0.00 0.00 74 1007.1
20210121015019 23 208 9.0 19.0 0.00 0.00 0.00 74 1007.2
20210121014520 23 206 8.0 15.0 0.00 0.00 0.00 74 1007.1
20210121014016 23 207 8.0 15.0 0.00 0.00 0.00 74 1007.1
20210121013521 23 202 7.0 16.0 0.00 0.00 0.00 74 1007.4
20210121013020 23 196 8.0 16.0 0.00 0.00 0.00 74 1007.4
20210121012527 23 201 8.0 16.0 0.00 0.00 0.00 74 1007.5
20210121012018 23 202 8.0 15.0 0.00 0.00 0.00 74 1007.6
20210121011521 23 212 7.0 15.0 0.00 0.00 0.00 74 1007.8
20210121011032 23 215 6.0 13.0 0.00 0.00 0.00 74 1007.8
20210121010524 23 207 6.0 16.0 0.00 0.00 0.00 73 1007.9
20210121010030 23 207 7.0 21.0 0.00 0.00 0.00 73 1008.0
20210121005518 23 202 11.0 21.0 0.00 0.00 0.00 73 1007.9
20210121005024 23 209 9.0 20.0 0.00 0.00 0.00 73 1008.0
20210121004527 23 203 5.0 18.0 0.00 0.00 0.00 73 1008.1
20210121004022 23 203 10.0 18.0 0.00 0.00 0.00 73 1008.1
20210121003520 23 199 8.0 18.0 0.00 0.00 0.00 73 1008.0
20210121003023 23 192 7.0 16.0 0.00 0.00 0.00 73 1008.0
20210121002527 23 190 7.0 19.0 0.00 0.00 0.00 73 1008.1
20210121002019 23 177 7.0 19.0 0.00 0.00 0.00 72 1008.1
20210121001520 23 184 9.0 19.0 0.00 0.00 0.00 72 1008.2
20210121001025 23 190 9.0 19.0 0.00 0.00 0.00 72 1008.3
20210121000517 22 187 7.0 16.0 0.00 0.00 0.00 72 1008.5
20210121000023 22 180 8.0 21.0 0.00 0.00 0.00 73 1008.6
20210120235529 22 184 9.0 21.0 0.00 0.00 0.00 73 1008.9
20210120235027 22 180 9.0 16.0 0.00 0.00 0.00 73 1008.9
20210120234530 22 182 8.0 20.0 0.00 0.00 0.00 73 1009.0
20210120234018 22 177 10.0 20.0 0.00 0.00 0.00 73 1009.0
20210120233532 22 176 9.0 17.0 0.00 0.00 0.00 73 1008.9
20210120233028 22 177 7.0 17.0 0.00 0.00 0.00 73 1009.3
20210120232520 22 181 9.0 20.0 0.00 0.00 0.00 73 1009.6
20210120232020 22 180 9.0 20.0 0.00 0.00 0.00 73 1010.1
20210120231521 22 176 8.0 16.0 0.00 0.00 0.00 73 1010.4
20210120231025 22 179 7.0 16.0 0.00 0.00 0.00 73 1010.6
20210120230521 22 180 7.0 15.0 0.00 0.00 0.00 72 1010.6
20210120230034 22 174 8.0 15.0 0.00 0.00 0.00 72 1010.8
20210120225519 22 171 9.0 15.0 0.00 0.00 0.00 72 1011.0
20210120225020 23 173 5.0 14.0 0.00 0.00 0.00 71 1011.3
20210120224539 23 173 7.0 14.0 0.00 0.00 0.00 70 1011.5
20210120224023 23 176 6.0 13.0 0.00 0.00 0.00 69 1011.6
20210120223523 23 178 6.0 12.0 0.00 0.00 0.00 67 1011.8
20210120223028 24 182 5.0 15.0 0.00 0.00 0.00 66 1011.9
20210120222522 24 182 7.0 15.0 0.00 0.00 0.00 65 1012.0
20210120222019 24 176 8.0 15.0 0.00 0.00 0.00 65 1012.1
20210120221531 24 190 7.0 12.0 0.00 0.00 0.00 64 1012.4
20210120221026 24 203 7.0 17.0 0.00 0.00 0.00 64 1012.6
20210120220525 25 187 9.0 17.0 0.00 0.00 0.00 64 1012.7
20210120220033 25 194 6.0 15.0 0.00 0.00 0.00 65 1012.9
20210120215529 25 206 7.0 15.0 0.00 0.00 0.00 65 1013.4
20210120215019 25 196 8.0 17.0 0.00 0.00 0.00 65 1013.5
20210120214531 25 206 8.0 17.0 0.00 0.00 0.00 65 1013.5
20210120214020 25 184 7.0 16.0 0.00 0.00 0.00 66 1013.6
20210120213521 25 194 7.0 17.0 0.00 0.00 0.00 66 1014.1
20210120213033 25 212 8.0 20.0 0.00 0.00 0.00 66 1014.2
20210120212520 25 207 10.0 20.0 0.00 0.00 0.00 66 1014.2
20210120212017 25 219 8.0 18.0 0.00 0.00 0.00 66 1014.2
20210120211524 25 205 8.0 17.0 0.00 0.00 0.00 66 1014.2
20210120211020 25 204 8.0 18.0 0.00 0.00 0.00 67 1014.2
20210120210520 24 198 10.0 18.0 0.00 0.00 0.00 67 1014.4
20210120210026 25 210 7.0 17.0 0.00 0.00 0.00 67 1014.6
20210120205534 24 211 7.0 18.0 0.00 0.00 0.00 67 1014.7
20210120205022 24 198 9.0 18.0 0.00 0.00 0.00 66 1014.6
20210120204525 24 204 8.0 18.0 0.00 0.00 0.00 67 1014.7
20210120204025 24 201 8.0 20.0 0.00 0.00 0.00 67 1014.8
20210120203531 25 205 9.0 20.0 0.00 0.00 0.00 67 1014.9